sensor_id;sensor_type;location;lat;lon;timestamp;P1;P2;P0
70691;PMS5003;58267;51.156;17.044;2024-01-16T00:00:27;24;24;
70691;PMS5003;58267;51.156;17.044;2024-01-16T00:02:53;21;20;
70691;PMS5003;58267;51.156;17.044;2024-01-16T00:05:18;21;20;
70691;PMS5003;58267;51.156;17.044;2024-01-16T00:07:43;24;23;
70691;PMS5003;58267;51.156;17.044;2024-01-16T00:10:09;20;20;
70691;PMS5003;58267;51.156;17.044;2024-01-16T00:12:34;6;6;
70691;PMS5003;58267;51.156;17.044;2024-01-16T00:15:00;8;8;
70691;PMS5003;58267;51.156;17.044;2024-01-16T00:17:25;7;6;
70691;PMS5003;58267;51.156;17.044;2024-01-16T00:19:50;7;6;
70691;PMS5003;58267;51.156;17.044;2024-01-16T00:22:15;7;6;
70691;PMS5003;58267;51.156;17.044;2024-01-16T00:24:41;6;5;
70691;PMS5003;58267;51.156;17.044;2024-01-16T00:27:06;4;4;
70691;PMS5003;58267;51.156;17.044;2024-01-16T00:29:31;8;6;
70691;PMS5003;58267;51.156;17.044;2024-01-16T00:31:56;9;6;
70691;PMS5003;58267;51.156;17.044;2024-01-16T00:34:22;6;6;
70691;PMS5003;58267;51.156;17.044;2024-01-16T00:36:51;3;3;
70691;PMS5003;58267;51.156;17.044;2024-01-16T00:39:17;7;6;
70691;PMS5003;58267;51.156;17.044;2024-01-16T00:41:42;8;7;
70691;PMS5003;58267;51.156;17.044;2024-01-16T00:44:07;5;5;
70691;PMS5003;58267;51.156;17.044;2024-01-16T00:46:32;6;6;
70691;PMS5003;58267;51.156;17.044;2024-01-16T00:48:58;7;6;
70691;PMS5003;58267;51.156;17.044;2024-01-16T00:51:23;7;7;
70691;PMS5003;58267;51.156;17.044;2024-01-16T00:53:48;5;5;
70691;PMS5003;58267;51.156;17.044;2024-01-16T00:56:13;7;7;
70691;PMS5003;58267;51.156;17.044;2024-01-16T00:58:39;7;7;
70691;PMS5003;58267;51.156;17.044;2024-01-16T01:01:04;7;7;
70691;PMS5003;58267;51.156;17.044;2024-01-16T01:03:29;4;4;
70691;PMS5003;58267;51.156;17.044;2024-01-16T01:05:55;7;6;
70691;PMS5003;58267;51.156;17.044;2024-01-16T01:08:30;7;5;
70691;PMS5003;58267;51.156;17.044;2024-01-16T01:10:45;6;6;
70691;PMS5003;58267;51.156;17.044;2024-01-16T01:13:10;8;8;
70691;PMS5003;58267;51.156;17.044;2024-01-16T01:15:36;6;6;
70691;PMS5003;58267;51.156;17.044;2024-01-16T01:18:01;11;10;
70691;PMS5003;58267;51.156;17.044;2024-01-16T01:20:26;7;6;
70691;PMS5003;58267;51.156;17.044;2024-01-16T01:22:55;12;12;
70691;PMS5003;58267;51.156;17.044;2024-01-16T01:25:21;7;6;
70691;PMS5003;58267;51.156;17.044;2024-01-16T01:27:46;9;7;
70691;PMS5003;58267;51.156;17.044;2024-01-16T01:30:12;6;5;
70691;PMS5003;58267;51.156;17.044;2024-01-16T01:32:37;6;5;
70691;PMS5003;58267;51.156;17.044;2024-01-16T01:35:02;5;5;
70691;PMS5003;58267;51.156;17.044;2024-01-16T01:37:27;5;5;
70691;PMS5003;58267;51.156;17.044;2024-01-16T01:39:53;7;7;
70691;PMS5003;58267;51.156;17.044;2024-01-16T01:42:18;6;5;
70691;PMS5003;58267;51.156;17.044;2024-01-16T01:44:44;10;8;
70691;PMS5003;58267;51.156;17.044;2024-01-16T01:47:09;7;7;
70691;PMS5003;58267;51.156;17.044;2024-01-16T01:49:34;8;8;
70691;PMS5003;58267;51.156;17.044;2024-01-16T01:52:02;6;6;
70691;PMS5003;58267;51.156;17.044;2024-01-16T01:54:28;7;7;
70691;PMS5003;58267;51.156;17.044;2024-01-16T01:56:53;9;9;
70691;PMS5003;58267;51.156;17.044;2024-01-16T01:59:18;8;8;
70691;PMS5003;58267;51.156;17.044;2024-01-16T02:01:43;10;9;
70691;PMS5003;58267;51.156;17.044;2024-01-16T02:04:09;11;10;
70691;PMS5003;58267;51.156;17.044;2024-01-16T02:06:34;12;10;
70691;PMS5003;58267;51.156;17.044;2024-01-16T02:08:59;10;9;
70691;PMS5003;58267;51.156;17.044;2024-01-16T02:11:26;9;9;
70691;PMS5003;58267;51.156;17.044;2024-01-16T02:13:51;11;9;
70691;PMS5003;58267;51.156;17.044;2024-01-16T02:16:18;11;11;
70691;PMS5003;58267;51.156;17.044;2024-01-16T02:18:42;13;11;
70691;PMS5003;58267;51.156;17.044;2024-01-16T02:21:08;14;14;
70691;PMS5003;58267;51.156;17.044;2024-01-16T02:23:33;13;12;
70691;PMS5003;58267;51.156;17.044;2024-01-16T02:25:59;12;11;
70691;PMS5003;58267;51.156;17.044;2024-01-16T02:28:24;11;10;
70691;PMS5003;58267;51.156;17.044;2024-01-16T02:30:50;11;9;
70691;PMS5003;58267;51.156;17.044;2024-01-16T02:33:16;11;10;
70691;PMS5003;58267;51.156;17.044;2024-01-16T02:35:41;10;10;
70691;PMS5003;58267;51.156;17.044;2024-01-16T02:47:48;11;9;
70691;PMS5003;58267;51.156;17.044;2024-01-16T02:50:13;11;10;
70691;PMS5003;58267;51.156;17.044;2024-01-16T02:52:38;12;10;
70691;PMS5003;58267;51.156;17.044;2024-01-16T02:55:04;10;9;
70691;PMS5003;58267;51.156;17.044;2024-01-16T02:57:29;8;7;
70691;PMS5003;58267;51.156;17.044;2024-01-16T02:59:54;9;7;
70691;PMS5003;58267;51.156;17.044;2024-01-16T03:02:20;8;7;
70691;PMS5003;58267;51.156;17.044;2024-01-16T03:04:45;8;8;
70691;PMS5003;58267;51.156;17.044;2024-01-16T03:07:10;11;10;
70691;PMS5003;58267;51.156;17.044;2024-01-16T03:09:36;10;9;
70691;PMS5003;58267;51.156;17.044;2024-01-16T03:12:02;14;12;
70691;PMS5003;58267;51.156;17.044;2024-01-16T03:14:28;7;7;
70691;PMS5003;58267;51.156;17.044;2024-01-16T03:16:54;11;10;
70691;PMS5003;58267;51.156;17.044;2024-01-16T03:19:19;11;11;
70691;PMS5003;58267;51.156;17.044;2024-01-16T03:21:45;11;9;
70691;PMS5003;58267;51.156;17.044;2024-01-16T03:24:10;10;9;
70691;PMS5003;58267;51.156;17.044;2024-01-16T03:26:39;5;5;
70691;PMS5003;58267;51.156;17.044;2024-01-16T03:29:05;9;9;
70691;PMS5003;58267;51.156;17.044;2024-01-16T03:31:30;10;9;
70691;PMS5003;58267;51.156;17.044;2024-01-16T03:33:55;12;11;
70691;PMS5003;58267;51.156;17.044;2024-01-16T03:36:21;9;8;
70691;PMS5003;58267;51.156;17.044;2024-01-16T03:38:46;10;8;
70691;PMS5003;58267;51.156;17.044;2024-01-16T03:41:11;6;6;
70691;PMS5003;58267;51.156;17.044;2024-01-16T03:43:37;11;8;
70691;PMS5003;58267;51.156;17.044;2024-01-16T03:46:02;7;7;
70691;PMS5003;58267;51.156;17.044;2024-01-16T03:48:28;9;8;
70691;PMS5003;58267;51.156;17.044;2024-01-16T03:50:53;12;11;
70691;PMS5003;58267;51.156;17.044;2024-01-16T03:53:19;15;15;
70691;PMS5003;58267;51.156;17.044;2024-01-16T03:55:44;13;12;
70691;PMS5003;58267;51.156;17.044;2024-01-16T03:58:10;8;8;
70691;PMS5003;58267;51.156;17.044;2024-01-16T04:00:35;7;6;
70691;PMS5003;58267;51.156;17.044;2024-01-16T04:03:00;7;6;
70691;PMS5003;58267;51.156;17.044;2024-01-16T04:05:26;7;7;
70691;PMS5003;58267;51.156;17.044;2024-01-16T04:07:51;9;7;
70691;PMS5003;58267;51.156;17.044;2024-01-16T04:10:17;9;8;
70691;PMS5003;58267;51.156;17.044;2024-01-16T04:12:42;9;8;
70691;PMS5003;58267;51.156;17.044;2024-01-16T04:15:08;7;5;
70691;PMS5003;58267;51.156;17.044;2024-01-16T04:17:32;11;9;
70691;PMS5003;58267;51.156;17.044;2024-01-16T04:19:58;10;9;
70691;PMS5003;58267;51.156;17.044;2024-01-16T04:22:23;7;7;
70691;PMS5003;58267;51.156;17.044;2024-01-16T04:24:48;8;7;
70691;PMS5003;58267;51.156;17.044;2024-01-16T04:27:14;11;9;
70691;PMS5003;58267;51.156;17.044;2024-01-16T04:29:39;7;7;
70691;PMS5003;58267;51.156;17.044;2024-01-16T04:32:04;7;7;
70691;PMS5003;58267;51.156;17.044;2024-01-16T04:34:30;8;8;
70691;PMS5003;58267;51.156;17.044;2024-01-16T04:36:55;6;6;
70691;PMS5003;58267;51.156;17.044;2024-01-16T04:39:20;6;5;
70691;PMS5003;58267;51.156;17.044;2024-01-16T04:41:45;7;7;
70691;PMS5003;58267;51.156;17.044;2024-01-16T04:44:11;5;5;
70691;PMS5003;58267;51.156;17.044;2024-01-16T04:46:36;7;6;
70691;PMS5003;58267;51.156;17.044;2024-01-16T04:49:02;6;5;
70691;PMS5003;58267;51.156;17.044;2024-01-16T04:51:27;8;7;
70691;PMS5003;58267;51.156;17.044;2024-01-16T04:53:52;5;5;
70691;PMS5003;58267;51.156;17.044;2024-01-16T04:56:18;6;5;
70691;PMS5003;58267;51.156;17.044;2024-01-16T04:58:43;6;5;
70691;PMS5003;58267;51.156;17.044;2024-01-16T05:01:09;6;6;
70691;PMS5003;58267;51.156;17.044;2024-01-16T05:03:34;8;7;
70691;PMS5003;58267;51.156;17.044;2024-01-16T05:05:59;5;5;
70691;PMS5003;58267;51.156;17.044;2024-01-16T05:08:25;5;5;
70691;PMS5003;58267;51.156;17.044;2024-01-16T05:10:50;7;7;
70691;PMS5003;58267;51.156;17.044;2024-01-16T05:13:15;7;6;
70691;PMS5003;58267;51.156;17.044;2024-01-16T05:15:41;12;11;
70691;PMS5003;58267;51.156;17.044;2024-01-16T05:18:06;9;9;
70691;PMS5003;58267;51.156;17.044;2024-01-16T05:20:31;7;7;
70691;PMS5003;58267;51.156;17.044;2024-01-16T05:22:57;9;9;
70691;PMS5003;58267;51.156;17.044;2024-01-16T05:25:22;11;11;
70691;PMS5003;58267;51.156;17.044;2024-01-16T05:27:47;8;7;
70691;PMS5003;58267;51.156;17.044;2024-01-16T05:30:12;10;9;
70691;PMS5003;58267;51.156;17.044;2024-01-16T05:32:38;8;7;
70691;PMS5003;58267;51.156;17.044;2024-01-16T05:35:03;8;7;
70691;PMS5003;58267;51.156;17.044;2024-01-16T05:37:28;8;7;
70691;PMS5003;58267;51.156;17.044;2024-01-16T05:39:54;11;9;
70691;PMS5003;58267;51.156;17.044;2024-01-16T05:42:19;10;9;
70691;PMS5003;58267;51.156;17.044;2024-01-16T05:44:44;8;8;
70691;PMS5003;58267;51.156;17.044;2024-01-16T05:47:10;8;8;
70691;PMS5003;58267;51.156;17.044;2024-01-16T05:49:35;10;9;
70691;PMS5003;58267;51.156;17.044;2024-01-16T05:52:00;11;10;
70691;PMS5003;58267;51.156;17.044;2024-01-16T05:54:26;11;8;
70691;PMS5003;58267;51.156;17.044;2024-01-16T05:56:51;6;5;
70691;PMS5003;58267;51.156;17.044;2024-01-16T05:59:16;7;6;
70691;PMS5003;58267;51.156;17.044;2024-01-16T06:01:42;8;7;
70691;PMS5003;58267;51.156;17.044;2024-01-16T06:04:08;10;10;
70691;PMS5003;58267;51.156;17.044;2024-01-16T06:06:33;8;8;
70691;PMS5003;58267;51.156;17.044;2024-01-16T06:08:59;9;8;
70691;PMS5003;58267;51.156;17.044;2024-01-16T06:11:29;9;9;
70691;PMS5003;58267;51.156;17.044;2024-01-16T06:13:50;11;10;
70691;PMS5003;58267;51.156;17.044;2024-01-16T06:16:16;11;10;
70691;PMS5003;58267;51.156;17.044;2024-01-16T06:18:42;10;10;
70691;PMS5003;58267;51.156;17.044;2024-01-16T06:21:08;11;9;
70691;PMS5003;58267;51.156;17.044;2024-01-16T06:23:33;10;10;
70691;PMS5003;58267;51.156;17.044;2024-01-16T06:25:59;14;14;
70691;PMS5003;58267;51.156;17.044;2024-01-16T06:28:24;14;12;
70691;PMS5003;58267;51.156;17.044;2024-01-16T06:30:49;10;10;
70691;PMS5003;58267;51.156;17.044;2024-01-16T06:33:14;11;11;
70691;PMS5003;58267;51.156;17.044;2024-01-16T06:35:40;11;10;
70691;PMS5003;58267;51.156;17.044;2024-01-16T06:38:05;11;11;
70691;PMS5003;58267;51.156;17.044;2024-01-16T06:40:31;10;10;
70691;PMS5003;58267;51.156;17.044;2024-01-16T06:42:56;11;10;
70691;PMS5003;58267;51.156;17.044;2024-01-16T06:45:21;9;9;
70691;PMS5003;58267;51.156;17.044;2024-01-16T06:47:46;15;12;
70691;PMS5003;58267;51.156;17.044;2024-01-16T06:50:12;11;10;
70691;PMS5003;58267;51.156;17.044;2024-01-16T06:52:37;16;14;
70691;PMS5003;58267;51.156;17.044;2024-01-16T06:55:03;19;18;
70691;PMS5003;58267;51.156;17.044;2024-01-16T06:57:28;17;16;
70691;PMS5003;58267;51.156;17.044;2024-01-16T06:59:55;17;17;
70691;PMS5003;58267;51.156;17.044;2024-01-16T07:02:21;19;18;
70691;PMS5003;58267;51.156;17.044;2024-01-16T07:04:46;20;18;
70691;PMS5003;58267;51.156;17.044;2024-01-16T07:07:12;20;17;
70691;PMS5003;58267;51.156;17.044;2024-01-16T07:09:37;23;20;
70691;PMS5003;58267;51.156;17.044;2024-01-16T07:12:03;20;20;
70691;PMS5003;58267;51.156;17.044;2024-01-16T07:14:28;17;17;
70691;PMS5003;58267;51.156;17.044;2024-01-16T07:16:53;19;17;
70691;PMS5003;58267;51.156;17.044;2024-01-16T07:19:19;31;30;
70691;PMS5003;58267;51.156;17.044;2024-01-16T07:21:44;30;29;
70691;PMS5003;58267;51.156;17.044;2024-01-16T07:24:09;25;24;
70691;PMS5003;58267;51.156;17.044;2024-01-16T07:26:35;26;24;
70691;PMS5003;58267;51.156;17.044;2024-01-16T07:29:00;21;19;
70691;PMS5003;58267;51.156;17.044;2024-01-16T07:31:25;20;18;
70691;PMS5003;58267;51.156;17.044;2024-01-16T07:33:51;23;22;
70691;PMS5003;58267;51.156;17.044;2024-01-16T07:36:16;26;21;
70691;PMS5003;58267;51.156;17.044;2024-01-16T07:38:42;27;26;
70691;PMS5003;58267;51.156;17.044;2024-01-16T07:41:08;26;22;
70691;PMS5003;58267;51.156;17.044;2024-01-16T07:43:34;24;21;
70691;PMS5003;58267;51.156;17.044;2024-01-16T07:45:59;26;23;
70691;PMS5003;58267;51.156;17.044;2024-01-16T07:48:25;32;26;
70691;PMS5003;58267;51.156;17.044;2024-01-16T07:50:51;24;19;
70691;PMS5003;58267;51.156;17.044;2024-01-16T07:53:16;19;17;
70691;PMS5003;58267;51.156;17.044;2024-01-16T07:55:42;14;14;
70691;PMS5003;58267;51.156;17.044;2024-01-16T07:58:07;17;16;
70691;PMS5003;58267;51.156;17.044;2024-01-16T08:00:33;15;14;
70691;PMS5003;58267;51.156;17.044;2024-01-16T08:02:58;17;15;
70691;PMS5003;58267;51.156;17.044;2024-01-16T08:05:24;17;15;
70691;PMS5003;58267;51.156;17.044;2024-01-16T08:07:49;15;15;
70691;PMS5003;58267;51.156;17.044;2024-01-16T08:10:15;18;18;
70691;PMS5003;58267;51.156;17.044;2024-01-16T08:12:40;23;22;
70691;PMS5003;58267;51.156;17.044;2024-01-16T08:15:06;20;18;
70691;PMS5003;58267;51.156;17.044;2024-01-16T08:17:31;21;20;
70691;PMS5003;58267;51.156;17.044;2024-01-16T08:19:56;20;20;
70691;PMS5003;58267;51.156;17.044;2024-01-16T08:22:22;20;19;
70691;PMS5003;58267;51.156;17.044;2024-01-16T08:24:47;16;15;
70691;PMS5003;58267;51.156;17.044;2024-01-16T08:27:13;23;21;
70691;PMS5003;58267;51.156;17.044;2024-01-16T08:29:39;17;15;
70691;PMS5003;58267;51.156;17.044;2024-01-16T08:32:04;19;17;
70691;PMS5003;58267;51.156;17.044;2024-01-16T08:34:30;15;14;
70691;PMS5003;58267;51.156;17.044;2024-01-16T08:36:55;13;13;
70691;PMS5003;58267;51.156;17.044;2024-01-16T08:39:21;17;16;
70691;PMS5003;58267;51.156;17.044;2024-01-16T08:41:46;24;23;
70691;PMS5003;58267;51.156;17.044;2024-01-16T08:44:12;22;20;
70691;PMS5003;58267;51.156;17.044;2024-01-16T08:46:37;17;16;
70691;PMS5003;58267;51.156;17.044;2024-01-16T08:49:03;20;16;
70691;PMS5003;58267;51.156;17.044;2024-01-16T08:51:28;17;16;
70691;PMS5003;58267;51.156;17.044;2024-01-16T08:53:54;15;14;
70691;PMS5003;58267;51.156;17.044;2024-01-16T08:56:19;14;13;
70691;PMS5003;58267;51.156;17.044;2024-01-16T08:58:45;17;15;
70691;PMS5003;58267;51.156;17.044;2024-01-16T09:01:10;14;13;
70691;PMS5003;58267;51.156;17.044;2024-01-16T09:03:36;14;13;
70691;PMS5003;58267;51.156;17.044;2024-01-16T09:06:02;15;13;
70691;PMS5003;58267;51.156;17.044;2024-01-16T09:08:28;11;11;
70691;PMS5003;58267;51.156;17.044;2024-01-16T09:10:53;19;19;
70691;PMS5003;58267;51.156;17.044;2024-01-16T09:13:19;13;13;
70691;PMS5003;58267;51.156;17.044;2024-01-16T09:15:44;13;13;
70691;PMS5003;58267;51.156;17.044;2024-01-16T09:18:10;12;11;
70691;PMS5003;58267;51.156;17.044;2024-01-16T09:20:35;17;17;
70691;PMS5003;58267;51.156;17.044;2024-01-16T09:23:00;19;17;
70691;PMS5003;58267;51.156;17.044;2024-01-16T09:25:26;14;13;
70691;PMS5003;58267;51.156;17.044;2024-01-16T09:27:51;10;10;
70691;PMS5003;58267;51.156;17.044;2024-01-16T09:30:17;12;11;
70691;PMS5003;58267;51.156;17.044;2024-01-16T09:32:42;12;11;
70691;PMS5003;58267;51.156;17.044;2024-01-16T09:35:08;20;20;
70691;PMS5003;58267;51.156;17.044;2024-01-16T09:37:37;11;10;
70691;PMS5003;58267;51.156;17.044;2024-01-16T09:39:58;16;14;
70691;PMS5003;58267;51.156;17.044;2024-01-16T09:42:23;11;10;
70691;PMS5003;58267;51.156;17.044;2024-01-16T09:44:49;11;11;
70691;PMS5003;58267;51.156;17.044;2024-01-16T09:47:14;8;7;
70691;PMS5003;58267;51.156;17.044;2024-01-16T09:49:39;10;10;
70691;PMS5003;58267;51.156;17.044;2024-01-16T09:52:05;14;13;
70691;PMS5003;58267;51.156;17.044;2024-01-16T09:54:30;13;11;
70691;PMS5003;58267;51.156;17.044;2024-01-16T09:56:57;13;12;
70691;PMS5003;58267;51.156;17.044;2024-01-16T09:59:21;18;17;
70691;PMS5003;58267;51.156;17.044;2024-01-16T10:01:48;12;12;
70691;PMS5003;58267;51.156;17.044;2024-01-16T10:04:13;13;12;
70691;PMS5003;58267;51.156;17.044;2024-01-16T10:06:38;10;10;
70691;PMS5003;58267;51.156;17.044;2024-01-16T10:09:03;11;10;
70691;PMS5003;58267;51.156;17.044;2024-01-16T10:11:29;16;14;
70691;PMS5003;58267;51.156;17.044;2024-01-16T10:13:54;16;13;
70691;PMS5003;58267;51.156;17.044;2024-01-16T10:16:20;13;11;
70691;PMS5003;58267;51.156;17.044;2024-01-16T10:18:45;13;12;
70691;PMS5003;58267;51.156;17.044;2024-01-16T10:23:35;12;12;
70691;PMS5003;58267;51.156;17.044;2024-01-16T10:26:05;11;11;
70691;PMS5003;58267;51.156;17.044;2024-01-16T10:28:27;11;10;
70691;PMS5003;58267;51.156;17.044;2024-01-16T10:30:53;12;11;
70691;PMS5003;58267;51.156;17.044;2024-01-16T10:33:17;12;11;
70691;PMS5003;58267;51.156;17.044;2024-01-16T10:35:43;15;13;
70691;PMS5003;58267;51.156;17.044;2024-01-16T10:38:08;13;13;
70691;PMS5003;58267;51.156;17.044;2024-01-16T10:40:33;15;14;
70691;PMS5003;58267;51.156;17.044;2024-01-16T10:43:00;21;20;
70691;PMS5003;58267;51.156;17.044;2024-01-16T10:45:25;14;12;
70691;PMS5003;58267;51.156;17.044;2024-01-16T10:47:55;10;10;
70691;PMS5003;58267;51.156;17.044;2024-01-16T10:50:17;9;8;
70691;PMS5003;58267;51.156;17.044;2024-01-16T10:52:44;14;12;
70691;PMS5003;58267;51.156;17.044;2024-01-16T10:55:08;12;10;
70691;PMS5003;58267;51.156;17.044;2024-01-16T10:57:33;12;12;
70691;PMS5003;58267;51.156;17.044;2024-01-16T11:00:01;15;15;
70691;PMS5003;58267;51.156;17.044;2024-01-16T11:02:24;16;13;
70691;PMS5003;58267;51.156;17.044;2024-01-16T11:04:49;14;14;
70691;PMS5003;58267;51.156;17.044;2024-01-16T11:07:15;21;19;
70691;PMS5003;58267;51.156;17.044;2024-01-16T11:09:40;15;15;
70691;PMS5003;58267;51.156;17.044;2024-01-16T11:12:05;12;11;
70691;PMS5003;58267;51.156;17.044;2024-01-16T11:14:31;13;13;
70691;PMS5003;58267;51.156;17.044;2024-01-16T11:16:56;13;13;
70691;PMS5003;58267;51.156;17.044;2024-01-16T11:19:22;15;13;
70691;PMS5003;58267;51.156;17.044;2024-01-16T11:21:47;15;13;
70691;PMS5003;58267;51.156;17.044;2024-01-16T11:24:13;15;13;
70691;PMS5003;58267;51.156;17.044;2024-01-16T11:26:39;16;15;
70691;PMS5003;58267;51.156;17.044;2024-01-16T11:31:30;15;15;
70691;PMS5003;58267;51.156;17.044;2024-01-16T11:33:55;22;20;
70691;PMS5003;58267;51.156;17.044;2024-01-16T11:38:46;13;13;
70691;PMS5003;58267;51.156;17.044;2024-01-16T11:41:12;14;13;
70691;PMS5003;58267;51.156;17.044;2024-01-16T11:43:37;12;12;
70691;PMS5003;58267;51.156;17.044;2024-01-16T11:46:04;13;13;
70691;PMS5003;58267;51.156;17.044;2024-01-16T11:48:27;14;14;
70691;PMS5003;58267;51.156;17.044;2024-01-16T11:50:53;11;11;
70691;PMS5003;58267;51.156;17.044;2024-01-16T11:55:48;12;11;
70691;PMS5003;58267;51.156;17.044;2024-01-16T11:58:15;12;11;
70691;PMS5003;58267;51.156;17.044;2024-01-16T12:00:35;14;13;
70691;PMS5003;58267;51.156;17.044;2024-01-16T12:03:00;15;14;
70691;PMS5003;58267;51.156;17.044;2024-01-16T12:05:26;15;14;
70691;PMS5003;58267;51.156;17.044;2024-01-16T12:07:52;16;12;
70691;PMS5003;58267;51.156;17.044;2024-01-16T12:10:17;16;14;
70691;PMS5003;58267;51.156;17.044;2024-01-16T12:12:41;17;14;
70691;PMS5003;58267;51.156;17.044;2024-01-16T12:15:07;16;16;
70691;PMS5003;58267;51.156;17.044;2024-01-16T12:17:32;15;14;
70691;PMS5003;58267;51.156;17.044;2024-01-16T12:19:58;14;14;
70691;PMS5003;58267;51.156;17.044;2024-01-16T12:22:23;24;23;
70691;PMS5003;58267;51.156;17.044;2024-01-16T12:24:48;18;17;
70691;PMS5003;58267;51.156;17.044;2024-01-16T12:27:14;14;14;
70691;PMS5003;58267;51.156;17.044;2024-01-16T12:29:39;16;16;
70691;PMS5003;58267;51.156;17.044;2024-01-16T12:32:05;15;13;
70691;PMS5003;58267;51.156;17.044;2024-01-16T12:34:30;15;13;
70691;PMS5003;58267;51.156;17.044;2024-01-16T12:39:21;15;15;
70691;PMS5003;58267;51.156;17.044;2024-01-16T12:41:46;17;15;
70691;PMS5003;58267;51.156;17.044;2024-01-16T12:44:12;13;13;
70691;PMS5003;58267;51.156;17.044;2024-01-16T12:46:37;16;15;
70691;PMS5003;58267;51.156;17.044;2024-01-16T12:49:02;21;16;
70691;PMS5003;58267;51.156;17.044;2024-01-16T12:51:28;16;15;
70691;PMS5003;58267;51.156;17.044;2024-01-16T12:53:53;17;16;
70691;PMS5003;58267;51.156;17.044;2024-01-16T12:56:19;17;15;
70691;PMS5003;58267;51.156;17.044;2024-01-16T12:58:44;17;17;
70691;PMS5003;58267;51.156;17.044;2024-01-16T13:03:35;18;16;
70691;PMS5003;58267;51.156;17.044;2024-01-16T13:06:00;16;15;
70691;PMS5003;58267;51.156;17.044;2024-01-16T13:08:26;16;16;
70691;PMS5003;58267;51.156;17.044;2024-01-16T13:13:17;25;22;
70691;PMS5003;58267;51.156;17.044;2024-01-16T13:15:42;25;22;
70691;PMS5003;58267;51.156;17.044;2024-01-16T13:20:35;13;13;
70691;PMS5003;58267;51.156;17.044;2024-01-16T13:23:01;23;18;
70691;PMS5003;58267;51.156;17.044;2024-01-16T13:25:27;24;21;
70691;PMS5003;58267;51.156;17.044;2024-01-16T13:27:52;27;22;
70691;PMS5003;58267;51.156;17.044;2024-01-16T13:30:17;19;17;
70691;PMS5003;58267;51.156;17.044;2024-01-16T13:32:43;17;17;
70691;PMS5003;58267;51.156;17.044;2024-01-16T13:35:09;15;13;
70691;PMS5003;58267;51.156;17.044;2024-01-16T13:37:34;15;13;
70691;PMS5003;58267;51.156;17.044;2024-01-16T13:40:00;17;16;
70691;PMS5003;58267;51.156;17.044;2024-01-16T13:42:25;12;12;
70691;PMS5003;58267;51.156;17.044;2024-01-16T13:44:51;17;16;
70691;PMS5003;58267;51.156;17.044;2024-01-16T13:47:16;18;16;
70691;PMS5003;58267;51.156;17.044;2024-01-16T13:49:42;16;14;
70691;PMS5003;58267;51.156;17.044;2024-01-16T13:52:07;16;16;
70691;PMS5003;58267;51.156;17.044;2024-01-16T13:54:32;20;18;
70691;PMS5003;58267;51.156;17.044;2024-01-16T13:56:58;21;19;
70691;PMS5003;58267;51.156;17.044;2024-01-16T13:59:23;26;25;
70691;PMS5003;58267;51.156;17.044;2024-01-16T14:01:48;25;24;
70691;PMS5003;58267;51.156;17.044;2024-01-16T14:04:13;13;13;
70691;PMS5003;58267;51.156;17.044;2024-01-16T14:06:39;19;16;
70691;PMS5003;58267;51.156;17.044;2024-01-16T14:09:05;18;18;
70691;PMS5003;58267;51.156;17.044;2024-01-16T14:11:31;17;16;
70691;PMS5003;58267;51.156;17.044;2024-01-16T14:13:56;22;19;
70691;PMS5003;58267;51.156;17.044;2024-01-16T14:16:21;17;16;
70691;PMS5003;58267;51.156;17.044;2024-01-16T14:18:47;18;16;
70691;PMS5003;58267;51.156;17.044;2024-01-16T14:21:13;16;13;
70691;PMS5003;58267;51.156;17.044;2024-01-16T14:23:39;15;14;
70691;PMS5003;58267;51.156;17.044;2024-01-16T14:26:04;19;18;
70691;PMS5003;58267;51.156;17.044;2024-01-16T14:28:29;18;18;
70691;PMS5003;58267;51.156;17.044;2024-01-16T14:30:56;16;15;
70691;PMS5003;58267;51.156;17.044;2024-01-16T14:33:20;21;21;
70691;PMS5003;58267;51.156;17.044;2024-01-16T14:35:46;16;15;
70691;PMS5003;58267;51.156;17.044;2024-01-16T14:38:11;19;18;
70691;PMS5003;58267;51.156;17.044;2024-01-16T14:40:37;31;28;
70691;PMS5003;58267;51.156;17.044;2024-01-16T14:43:02;30;29;
70691;PMS5003;58267;51.156;17.044;2024-01-16T14:45:27;22;21;
70691;PMS5003;58267;51.156;17.044;2024-01-16T14:47:52;24;23;
70691;PMS5003;58267;51.156;17.044;2024-01-16T14:50:18;24;23;
70691;PMS5003;58267;51.156;17.044;2024-01-16T14:52:43;34;34;
70691;PMS5003;58267;51.156;17.044;2024-01-16T14:55:09;32;29;
70691;PMS5003;58267;51.156;17.044;2024-01-16T14:57:34;37;33;
70691;PMS5003;58267;51.156;17.044;2024-01-16T14:59:59;30;29;
70691;PMS5003;58267;51.156;17.044;2024-01-16T15:02:25;26;24;
70691;PMS5003;58267;51.156;17.044;2024-01-16T15:04:50;32;28;
70691;PMS5003;58267;51.156;17.044;2024-01-16T15:07:15;30;28;
70691;PMS5003;58267;51.156;17.044;2024-01-16T15:09:41;29;29;
70691;PMS5003;58267;51.156;17.044;2024-01-16T15:12:08;27;24;
70691;PMS5003;58267;51.156;17.044;2024-01-16T15:14:32;24;23;
70691;PMS5003;58267;51.156;17.044;2024-01-16T15:16:58;29;25;
70691;PMS5003;58267;51.156;17.044;2024-01-16T15:19:23;23;19;
70691;PMS5003;58267;51.156;17.044;2024-01-16T15:21:48;27;26;
70691;PMS5003;58267;51.156;17.044;2024-01-16T15:24:13;35;30;
70691;PMS5003;58267;51.156;17.044;2024-01-16T15:26:39;28;27;
70691;PMS5003;58267;51.156;17.044;2024-01-16T15:29:05;33;33;
70691;PMS5003;58267;51.156;17.044;2024-01-16T15:31:31;36;34;
70691;PMS5003;58267;51.156;17.044;2024-01-16T15:33:56;48;45;
70691;PMS5003;58267;51.156;17.044;2024-01-16T15:36:21;45;43;
70691;PMS5003;58267;51.156;17.044;2024-01-16T15:38:46;48;45;
70691;PMS5003;58267;51.156;17.044;2024-01-16T15:41:12;47;46;
70691;PMS5003;58267;51.156;17.044;2024-01-16T15:43:37;43;42;
70691;PMS5003;58267;51.156;17.044;2024-01-16T15:46:02;43;41;
70691;PMS5003;58267;51.156;17.044;2024-01-16T15:48:28;42;41;
70691;PMS5003;58267;51.156;17.044;2024-01-16T15:50:54;50;47;
70691;PMS5003;58267;51.156;17.044;2024-01-16T15:53:19;47;44;
70691;PMS5003;58267;51.156;17.044;2024-01-16T15:55:45;59;54;
70691;PMS5003;58267;51.156;17.044;2024-01-16T15:58:10;45;43;
70691;PMS5003;58267;51.156;17.044;2024-01-16T16:00:35;39;35;
70691;PMS5003;58267;51.156;17.044;2024-01-16T16:03:01;35;34;
70691;PMS5003;58267;51.156;17.044;2024-01-16T16:05:29;43;43;
70691;PMS5003;58267;51.156;17.044;2024-01-16T16:07:54;30;30;
70691;PMS5003;58267;51.156;17.044;2024-01-16T16:10:20;34;33;
70691;PMS5003;58267;51.156;17.044;2024-01-16T16:12:45;34;33;
70691;PMS5003;58267;51.156;17.044;2024-01-16T16:15:12;35;32;
70691;PMS5003;58267;51.156;17.044;2024-01-16T16:17:37;36;32;
70691;PMS5003;58267;51.156;17.044;2024-01-16T16:20:02;39;36;
70691;PMS5003;58267;51.156;17.044;2024-01-16T16:22:28;43;41;
70691;PMS5003;58267;51.156;17.044;2024-01-16T16:24:53;42;40;
70691;PMS5003;58267;51.156;17.044;2024-01-16T16:27:21;39;37;